Time;durP1;ratioP1;P1;durP2;ratioP2;P2;SDS_P1;SDS_P2;PMS_P1;PMS_P2;Temp;Humidity;BMP_temperature;BMP_pressure;BME280_temperature;BME280_humidity;BME280_pressure;Samples;Min_cycle;Max_cycle;Signal;HPM_P1;HPM_P2
2023/07/12 00:01:09;;;;;;;11.90;8.10;;;;;;;17.25;73.05;100484.60;106430;1259;100050;-83
2023/07/12 00:03:55;;;;;;;12.10;8.30;;;;;;;17.22;73.18;100489.40;106117;1260;99859;-81
2023/07/12 00:06:40;;;;;;;10.80;8.00;;;;;;;17.19;72.84;100496.58;106622;1256;97788;-83
2023/07/12 00:09:25;;;;;;;12.90;7.90;;;;;;;17.16;72.84;100509.77;106404;1256;96531;-83
2023/07/12 00:12:11;;;;;;;13.10;8.70;;;;;;;17.15;73.03;100516.16;106362;1262;96568;-82
2023/07/12 00:14:56;;;;;;;10.50;8.10;;;;;;;17.13;73.28;100513.13;106390;1256;100682;-82
2023/07/12 00:17:42;;;;;;;13.80;8.90;;;;;;;17.10;73.00;100513.02;106530;1256;100462;-83
2023/07/12 00:20:35;;;;;;;10.40;7.80;;;;;;;17.06;73.08;100513.83;106236;1260;98961;-84
2023/07/12 00:23:21;;;;;;;12.30;8.80;;;;;;;16.99;73.03;100515.59;107165;1256;95301;-83
2023/07/12 00:26:27;;;;;;;11.80;8.20;;;;;;;16.92;73.35;100514.77;106287;1260;97126;-83
2023/07/12 00:29:12;;;;;;;10.80;8.00;;;;;;;16.88;73.59;100520.75;106379;1257;99997;-84
2023/07/12 00:31:58;;;;;;;10.60;8.30;;;;;;;16.85;73.69;100523.38;106397;1260;100355;-83
2023/07/12 00:34:44;;;;;;;10.70;8.10;;;;;;;16.85;73.82;100516.35;106325;1256;98973;-83
2023/07/12 00:37:29;;;;;;;10.60;8.00;;;;;;;16.85;73.74;100503.15;106027;1256;97477;-83
2023/07/12 00:40:48;;;;;;;10.10;8.20;;;;;;;16.85;73.79;100497.73;106191;1259;96619;-83
2023/07/12 00:43:40;;;;;;;10.60;7.90;;;;;;;16.78;74.07;100488.96;106237;1260;101305;-83
2023/07/12 00:46:32;;;;;;;11.40;8.90;;;;;;;16.72;74.20;100483.59;106290;1260;99078;-83
2023/07/12 00:49:18;;;;;;;13.00;8.60;;;;;;;16.67;74.28;100480.91;106167;1262;97794;-83
2023/07/12 00:52:06;;;;;;;14.90;9.80;;;;;;;16.64;74.51;100475.14;106131;1260;96558;-83
2023/07/12 00:54:58;;;;;;;14.30;9.90;;;;;;;16.62;74.49;100474.42;106154;1256;96524;-83
2023/07/12 00:57:44;;;;;;;19.90;11.20;;;;;;;16.57;74.57;100471.49;106132;1261;99976;-82
2023/07/12 01:00:33;;;;;;;15.00;9.90;;;;;;;16.53;74.89;100464.02;106276;1260;99281;-83
2023/07/12 01:03:22;;;;;;;15.10;9.30;;;;;;;16.49;75.25;100461.31;106278;1256;98965;-83
2023/07/12 01:06:11;;;;;;;10.90;8.50;;;;;;;16.44;75.30;100464.73;106234;1256;96579;-83
2023/07/12 01:09:03;;;;;;;12.20;9.10;;;;;;;16.41;75.52;100467.15;106219;1256;96867;-82
2023/07/12 01:11:49;;;;;;;14.00;8.40;;;;;;;16.38;75.11;100467.63;106161;1259;100105;-83
2023/07/12 01:14:38;;;;;;;15.20;9.40;;;;;;;16.37;75.15;100462.42;106172;1256;99151;-82
2023/07/12 01:17:26;;;;;;;13.70;9.50;;;;;;;16.35;75.08;100461.81;108027;1256;99006;-84
2023/07/12 01:20:11;;;;;;;15.00;8.70;;;;;;;16.28;75.03;100467.02;106241;1260;96701;-82
2023/07/12 01:22:57;;;;;;;11.00;8.60;;;;;;;16.23;75.20;100470.12;106039;1256;97105;-83
2023/07/12 01:25:45;;;;;;;11.40;8.60;;;;;;;16.19;75.16;100469.16;106311;1256;108682;-84
2023/07/12 01:28:31;;;;;;;13.10;8.70;;;;;;;16.17;75.37;100463.04;106286;1256;99096;-84
2023/07/12 01:31:17;;;;;;;14.10;9.00;;;;;;;16.15;75.44;100455.28;106179;1262;97800;-82
2023/07/12 01:34:03;;;;;;;11.80;8.30;;;;;;;16.13;75.62;100451.52;106298;1263;97727;-83
2023/07/12 01:36:49;;;;;;;12.50;9.00;;;;;;;16.12;75.53;100447.53;106358;1260;97154;-83
2023/07/12 01:39:35;;;;;;;10.90;8.70;;;;;;;16.10;75.78;100442.66;106182;1256;100714;-82
2023/07/12 01:42:20;;;;;;;10.40;8.00;;;;;;;16.07;75.91;100440.79;106101;1258;100402;-82
2023/07/12 01:45:06;;;;;;;12.00;7.10;;;;;;;16.04;76.00;100449.13;106154;1260;97739;-83
2023/07/12 01:47:52;;;;;;;8.50;6.70;;;;;;;15.99;76.06;100453.03;106142;1256;96597;-83
2023/07/12 01:50:38;;;;;;;8.10;7.30;;;;;;;15.95;76.14;100451.57;106315;1259;96673;-83
2023/07/12 01:53:23;;;;;;;9.30;7.30;;;;;;;15.92;76.42;100444.50;106477;1256;101709;-83
2023/07/12 01:56:10;;;;;;;9.20;7.40;;;;;;;15.89;76.73;100442.66;105992;1260;100830;-83
2023/07/12 01:58:55;;;;;;;7.70;6.80;;;;;;;15.87;76.86;100445.48;105893;1262;99059;-82
2023/07/12 02:01:41;;;;;;;8.80;7.80;;;;;;;15.83;77.14;100439.61;106415;1256;96681;-83
2023/07/12 02:04:26;;;;;;;9.70;7.10;;;;;;;15.78;77.21;100439.05;106442;1255;96605;-82
2023/07/12 02:07:12;;;;;;;9.00;7.10;;;;;;;15.72;77.62;100437.36;106224;1261;100162;-83
2023/07/12 02:10:14;;;;;;;11.00;7.10;;;;;;;15.70;77.62;100439.13;106163;1256;99252;-83
2023/07/12 02:13:00;;;;;;;9.80;7.60;;;;;;;15.65;77.43;100439.55;106143;1262;98459;-83
2023/07/12 02:15:46;;;;;;;10.30;8.00;;;;;;;15.61;77.47;100433.08;106020;1256;97948;-83
2023/07/12 02:18:32;;;;;;;10.20;7.00;;;;;;;15.61;77.22;100427.52;106107;1259;97165;-84
2023/07/12 02:21:17;;;;;;;8.70;7.70;;;;;;;15.59;77.13;100425.34;106136;1256;100062;-83
2023/07/12 02:24:02;;;;;;;12.90;9.30;;;;;;;15.56;77.80;100426.35;107257;1259;100215;-83
2023/07/12 02:26:48;;;;;;;12.40;8.80;;;;;;;15.55;78.31;100414.53;106147;1256;98335;-84
2023/07/12 02:29:34;;;;;;;12.80;8.70;;;;;;;15.55;78.65;100412.25;106152;1258;96582;-83
2023/07/12 02:32:22;;;;;;;10.80;9.10;;;;;;;15.54;79.00;100415.25;106158;1256;97527;-83
2023/07/12 02:35:08;;;;;;;9.70;8.20;;;;;;;15.54;79.31;100406.23;105923;1256;100095;-83
2023/07/12 02:37:54;;;;;;;12.40;8.40;;;;;;;15.50;79.45;100401.91;106252;1256;100086;-82
2023/07/12 02:40:40;;;;;;;12.20;7.70;;;;;;;15.45;79.64;100404.29;106150;1261;99041;-84
2023/07/12 02:43:26;;;;;;;8.60;7.70;;;;;;;15.41;79.78;100398.83;105968;1261;96635;-83
2023/07/12 02:46:11;;;;;;;10.30;8.00;;;;;;;15.39;79.95;100400.86;106030;1260;96775;-83
2023/07/12 02:48:57;;;;;;;10.70;8.30;;;;;;;15.38;80.08;100405.79;106113;1257;100089;-83
2023/07/12 02:51:43;;;;;;;11.80;7.90;;;;;;;15.35;79.74;100404.02;106196;1256;100138;-82
2023/07/12 02:54:29;;;;;;;9.30;8.10;;;;;;;15.33;79.58;100399.30;106002;1262;97730;-83
2023/07/12 02:57:15;;;;;;;9.90;8.10;;;;;;;15.32;79.44;100408.13;106061;1256;96531;-83
2023/07/12 03:00:01;;;;;;;12.00;8.50;;;;;;;15.31;79.62;100414.98;105977;1262;97128;-84
2023/07/12 03:02:47;;;;;;;9.10;8.10;;;;;;;15.27;79.75;100412.94;106034;1256;100032;-83
2023/07/12 03:05:37;;;;;;;9.80;8.30;;;;;;;15.25;79.63;100406.39;106137;1256;99575;-83
2023/07/12 03:08:22;;;;;;;9.40;7.60;;;;;;;15.23;79.37;100404.96;106074;1256;99027;-84
2023/07/12 03:11:08;;;;;;;10.20;7.90;;;;;;;15.18;79.59;100407.63;106426;1260;96556;-82
2023/07/12 03:13:54;;;;;;;10.80;8.50;;;;;;;15.17;79.83;100405.31;106120;1262;96601;-82
2023/07/12 03:16:39;;;;;;;12.70;8.50;;;;;;;15.19;79.98;100403.73;106032;1261;99972;-83
2023/07/12 03:19:25;;;;;;;8.80;7.90;;;;;;;15.20;80.36;100405.16;105904;1256;99631;-83
2023/07/12 03:22:10;;;;;;;7.80;6.90;;;;;;;15.20;80.24;100407.95;106094;1256;99059;-84
2023/07/12 03:24:56;;;;;;;9.60;7.60;;;;;;;15.19;80.13;100403.05;106319;1261;96605;-84
2023/07/12 03:27:41;;;;;;;8.80;7.20;;;;;;;15.19;79.96;100398.03;106166;1256;97078;-83
2023/07/12 03:30:26;;;;;;;8.50;7.40;;;;;;;15.20;80.15;100397.23;106409;1256;101689;-83
2023/07/12 03:33:12;;;;;;;11.50;8.30;;;;;;;15.21;80.19;100394.86;106067;1260;100396;-84
2023/07/12 03:35:59;;;;;;;10.60;8.20;;;;;;;15.23;80.46;100392.06;106055;1256;97850;-83
2023/07/12 03:38:45;;;;;;;10.50;7.70;;;;;;;15.25;80.46;100384.20;106110;1257;96627;-83
2023/07/12 03:41:30;;;;;;;10.50;7.80;;;;;;;15.27;80.58;100378.61;105851;1256;96714;-83
2023/07/12 03:44:16;;;;;;;10.80;8.10;;;;;;;15.31;80.95;100369.06;106039;1262;101353;-83
2023/07/12 03:47:01;;;;;;;10.10;8.40;;;;;;;15.33;81.39;100363.48;105762;1262;100479;-84
2023/07/12 03:49:47;;;;;;;12.10;7.90;;;;;;;15.37;81.68;100359.20;105889;1256;98982;-84
2023/07/12 03:52:32;;;;;;;11.20;9.50;;;;;;;15.39;81.94;100351.08;105952;1262;96614;-84
2023/07/12 03:55:18;;;;;;;10.40;8.80;;;;;;;15.41;82.48;100341.68;106053;1260;96618;-83
2023/07/12 03:58:03;;;;;;;10.10;8.60;;;;;;;15.43;82.60;100336.86;106021;1262;100102;-82
2023/07/12 04:00:50;;;;;;;14.00;9.20;;;;;;;15.47;82.72;100333.69;106126;1261;100540;-82
2023/07/12 04:03:38;;;;;;;13.60;10.10;;;;;;;15.52;83.08;100334.20;105906;1256;97761;-84
2023/07/12 04:06:23;;;;;;;12.00;9.70;;;;;;;15.58;83.30;100332.67;106010;1256;96594;-83
2023/07/12 04:09:09;;;;;;;12.80;8.70;;;;;;;15.65;84.03;100336.91;106079;1262;97132;-84
2023/07/12 04:11:55;;;;;;;12.30;9.10;;;;;;;15.71;84.50;100342.61;105877;1256;100095;-84
2023/07/12 04:14:40;;;;;;;10.50;8.60;;;;;;;15.79;84.81;100340.02;106060;1256;100041;-82
2023/07/12 04:17:26;;;;;;;13.70;8.30;;;;;;;15.88;84.79;100338.66;105926;1256;97867;-84
2023/07/12 04:20:13;;;;;;;10.60;8.70;;;;;;;16.00;84.93;100332.93;105861;1257;97077;-83
2023/07/12 04:22:58;;;;;;;13.40;9.70;;;;;;;16.11;85.09;100328.06;106123;1256;96583;-83
2023/07/12 04:25:43;;;;;;;13.20;9.90;;;;;;;16.24;85.40;100327.02;105957;1256;99997;-82
2023/07/12 04:28:31;;;;;;;14.20;10.40;;;;;;;16.40;85.64;100324.34;106104;1256;99167;-82
2023/07/12 04:31:19;;;;;;;15.30;9.60;;;;;;;16.54;85.62;100322.68;105804;1262;97926;-83
2023/07/12 04:34:04;;;;;;;13.70;10.30;;;;;;;16.68;85.85;100317.14;105951;1262;97374;-82
2023/07/12 04:36:53;;;;;;;14.60;9.30;;;;;;;16.82;85.71;100312.28;105907;1256;98137;-84
2023/07/12 04:39:38;;;;;;;10.60;9.50;;;;;;;16.96;85.65;100305.58;105975;1262;100019;-82
2023/07/12 04:42:24;;;;;;;12.20;9.60;;;;;;;17.09;85.81;100301.06;105829;1257;99261;-82
2023/07/12 04:45:12;;;;;;;11.90;9.90;;;;;;;17.21;85.71;100297.30;106196;1258;97812;-84
2023/07/12 04:47:58;;;;;;;10.20;8.10;;;;;;;17.34;85.44;100299.45;105831;1256;97892;-82
2023/07/12 04:50:44;;;;;;;10.20;8.60;;;;;;;17.45;84.82;100303.95;106000;1261;96585;-82
2023/07/12 04:53:32;;;;;;;11.70;7.70;;;;;;;17.57;84.77;100303.79;106104;1256;101255;-83
2023/07/12 04:56:18;;;;;;;10.30;7.90;;;;;;;17.70;84.83;100302.70;106333;1257;99210;-82
2023/07/12 04:59:03;;;;;;;9.90;8.40;;;;;;;17.82;84.58;100304.69;105737;1256;97803;-84
2023/07/12 05:01:49;;;;;;;7.90;7.00;;;;;;;17.94;84.34;100303.08;105724;1262;97327;-84
2023/07/12 05:04:35;;;;;;;14.70;7.20;;;;;;;18.07;83.77;100303.20;105768;1262;97071;-84
2023/07/12 05:07:20;;;;;;;11.80;7.60;;;;;;;18.19;83.75;100305.61;105969;1260;100628;-83
2023/07/12 05:10:07;;;;;;;11.60;7.90;;;;;;;18.32;83.71;100306.66;106051;1257;99100;-84
2023/07/12 05:12:53;;;;;;;13.10;7.70;;;;;;;18.46;83.41;100304.59;105897;1256;99269;-82
2023/07/12 05:15:39;;;;;;;12.90;7.30;;;;;;;18.62;83.36;100310.09;106015;1261;96610;-83
2023/07/12 05:18:24;;;;;;;9.60;7.10;;;;;;;18.75;82.78;100311.05;105895;1256;96561;-82
2023/07/12 05:21:09;;;;;;;9.60;6.40;;;;;;;18.90;82.60;100308.80;106073;1256;100073;-84
2023/07/12 05:23:55;;;;;;;7.70;5.80;;;;;;;19.05;82.45;100303.98;106170;1262;108450;-83
2023/07/12 05:26:40;;;;;;;10.20;6.50;;;;;;;19.16;82.04;100291.51;106034;1262;97856;-83
2023/07/12 05:29:26;;;;;;;12.10;6.00;;;;;;;19.31;81.67;100286.20;106069;1262;96665;-83
2023/07/12 05:32:13;;;;;;;11.90;6.10;;;;;;;19.46;80.74;100280.52;105973;1262;96687;-85
2023/07/12 05:34:58;;;;;;;6.90;6.10;;;;;;;19.60;80.81;100275.80;105848;1262;100043;-83
2023/07/12 05:37:44;;;;;;;9.10;5.80;;;;;;;19.74;80.16;100278.98;105912;1262;99222;-83
2023/07/12 05:40:30;;;;;;;7.30;5.70;;;;;;;19.89;79.29;100281.22;105739;1256;97772;-84
2023/07/12 05:43:23;;;;;;;8.10;5.60;;;;;;;20.05;78.99;100285.19;106005;1260;96601;-83
2023/07/12 05:46:08;;;;;;;9.20;6.00;;;;;;;20.21;78.91;100287.60;105872;1257;97058;-84
2023/07/12 05:48:54;;;;;;;6.90;5.80;;;;;;;20.36;78.48;100286.14;105879;1256;100151;-83
2023/07/12 05:51:39;;;;;;;7.40;5.40;;;;;;;20.51;78.73;100279.58;105854;1256;100361;-83
2023/07/12 05:54:25;;;;;;;6.80;4.80;;;;;;;20.66;77.99;100275.55;105885;1260;97720;-85
2023/07/12 05:57:11;;;;;;;7.80;5.80;;;;;;;20.81;77.09;100276.60;105742;1256;96574;-83
2023/07/12 05:59:57;;;;;;;8.50;5.80;;;;;;;20.96;76.16;100284.81;105897;1262;96546;-84
2023/07/12 06:02:42;;;;;;;9.60;5.40;;;;;;;21.09;75.97;100286.23;105831;1257;100066;-83
2023/07/12 06:05:28;;;;;;;9.10;5.00;;;;;;;21.22;76.20;100284.57;106139;1260;99056;-83
2023/07/12 06:08:14;;;;;;;5.80;5.10;;;;;;;21.35;75.58;100274.95;105906;1262;97595;-84
2023/07/12 06:10:59;;;;;;;7.40;5.20;;;;;;;21.50;75.32;100272.94;105760;1259;96607;-85
2023/07/12 06:13:45;;;;;;;7.40;5.20;;;;;;;21.64;75.43;100270.21;105883;1257;96740;-83
2023/07/12 06:16:30;;;;;;;9.20;5.40;;;;;;;21.74;74.62;100271.73;106135;1259;100075;-83
2023/07/12 06:19:16;;;;;;;11.40;5.40;;;;;;;21.83;74.12;100272.11;105802;1256;99226;-84
2023/07/12 06:22:01;;;;;;;8.90;4.70;;;;;;;21.95;73.82;100275.04;106139;1258;99024;-83
2023/07/12 06:24:47;;;;;;;6.80;5.00;;;;;;;22.07;73.07;100275.06;106226;1262;96652;-83
2023/07/12 06:27:32;;;;;;;5.90;4.90;;;;;;;22.19;72.53;100277.05;106176;1259;96498;-83
2023/07/12 06:30:18;;;;;;;8.10;4.50;;;;;;;22.32;72.58;100277.95;105935;1257;100084;-82
2023/07/12 06:33:03;;;;;;;5.30;4.60;;;;;;;22.46;72.17;100277.20;106224;1262;99222;-83
2023/07/12 06:35:49;;;;;;;10.80;5.80;;;;;;;22.59;71.43;100274.61;106173;1258;97711;-82
2023/07/12 06:38:34;;;;;;;6.80;4.90;;;;;;;22.74;71.52;100269.52;106090;1261;96713;-83
2023/07/12 06:41:19;;;;;;;9.80;4.60;;;;;;;22.87;71.17;100268.02;106159;1257;96613;-83
2023/07/12 06:44:05;;;;;;;9.20;5.00;;;;;;;22.98;69.66;100268.02;106040;1262;100065;-81
2023/07/12 06:46:50;;;;;;;6.00;4.70;;;;;;;23.06;68.40;100268.44;105990;1260;109391;-83
2023/07/12 06:49:36;;;;;;;5.70;3.90;;;;;;;23.15;68.33;100267.87;106291;1261;97805;-83
2023/07/12 06:52:21;;;;;;;7.90;4.20;;;;;;;23.27;68.19;100263.57;106026;1262;96614;-83
2023/07/12 06:55:09;;;;;;;5.80;4.00;;;;;;;23.40;67.62;100254.75;106116;1261;97115;-83
2023/07/12 06:57:54;;;;;;;6.70;4.30;;;;;;;23.55;66.93;100254.22;105816;1257;100103;-83
2023/07/12 07:00:41;;;;;;;7.00;4.10;;;;;;;23.70;66.18;100252.11;105947;1257;99205;-84
2023/07/12 07:03:27;;;;;;;6.70;4.60;;;;;;;23.84;65.41;100254.06;105857;1262;97804;-83
2023/07/12 07:06:13;;;;;;;5.20;3.90;;;;;;;23.97;64.44;100254.48;105807;1262;96773;-84
2023/07/12 07:08:58;;;;;;;8.60;4.30;;;;;;;24.10;63.18;100248.45;106063;1262;97123;-84
2023/07/12 07:11:44;;;;;;;7.90;4.00;;;;;;;24.19;62.63;100241.50;106079;1256;100051;-83
2023/07/12 07:14:29;;;;;;;5.70;3.90;;;;;;;24.27;61.72;100236.84;106095;1256;99172;-82
2023/07/12 07:17:15;;;;;;;6.20;4.00;;;;;;;24.37;60.91;100231.84;105974;1261;99051;-83
2023/07/12 07:20:00;;;;;;;4.80;4.00;;;;;;;24.45;60.43;100228.64;105929;1260;97086;-84
2023/07/12 07:22:46;;;;;;;7.10;3.90;;;;;;;24.49;59.69;100225.98;105972;1257;97145;-84
2023/07/12 07:25:32;;;;;;;6.70;3.70;;;;;;;24.53;59.42;100215.71;105991;1260;100083;-83
2023/07/12 07:28:17;;;;;;;5.90;3.50;;;;;;;24.58;59.11;100211.17;106209;1262;99078;-83
2023/07/12 07:31:03;;;;;;;7.20;3.90;;;;;;;24.65;58.67;100209.14;106047;1262;97706;-83
2023/07/12 07:33:49;;;;;;;6.10;3.80;;;;;;;24.74;58.25;100211.15;106036;1262;96527;-82
2023/07/12 07:36:35;;;;;;;6.40;3.70;;;;;;;24.85;57.21;100205.69;106035;1262;96662;-82
2023/07/12 07:39:20;;;;;;;4.00;3.50;;;;;;;24.94;57.23;100199.28;105923;1262;101364;-83
2023/07/12 07:42:06;;;;;;;5.80;3.30;;;;;;;25.04;56.75;100195.39;106054;1256;100365;-83
2023/07/12 07:44:51;;;;;;;7.50;3.50;;;;;;;25.12;55.88;100196.38;106035;1262;97865;-83
2023/07/12 07:47:37;;;;;;;4.70;3.80;;;;;;;25.23;55.96;100191.48;106001;1262;96960;-83
2023/07/12 07:50:23;;;;;;;5.40;3.60;;;;;;;25.38;55.73;100189.50;105926;1263;96649;-82
2023/07/12 07:53:11;;;;;;;8.00;3.70;;;;;;;25.50;54.62;100187.50;106034;1262;100267;-83
2023/07/12 07:55:56;;;;;;;5.80;3.70;;;;;;;25.58;53.73;100179.37;106165;1262;99168;-83
2023/07/12 07:58:41;;;;;;;6.30;4.10;;;;;;;25.65;53.28;100171.39;105995;1257;99076;-83
2023/07/12 08:01:27;;;;;;;4.10;3.30;;;;;;;25.71;52.93;100168.05;106153;1263;96481;-82
2023/07/12 08:04:13;;;;;;;4.00;3.40;;;;;;;25.76;52.31;100170.13;106082;1262;97637;-84
2023/07/12 08:06:58;;;;;;;5.40;3.40;;;;;;;25.79;52.38;100169.46;106273;1256;101378;-82
2023/07/12 08:09:43;;;;;;;6.40;3.00;;;;;;;25.82;51.52;100171.93;106105;1261;99081;-82
2023/07/12 08:12:29;;;;;;;5.30;3.10;;;;;;;25.85;50.94;100168.60;106258;1258;98810;-83
2023/07/12 08:15:17;;;;;;;4.50;3.60;;;;;;;25.91;51.61;100167.54;106002;1258;96675;-82
2023/07/12 08:18:04;;;;;;;5.80;3.30;;;;;;;25.96;51.12;100161.69;106259;1256;96657;-82
2023/07/12 08:20:53;;;;;;;6.70;3.30;;;;;;;26.01;50.05;100156.56;106216;1261;99987;-83
2023/07/12 08:23:39;;;;;;;3.80;3.40;;;;;;;26.06;49.29;100147.21;106270;1263;99702;-81
2023/07/12 08:26:24;;;;;;;3.50;3.00;;;;;;;26.14;49.46;100142.27;106391;1263;97760;-82
2023/07/12 08:29:10;;;;;;;7.20;3.50;;;;;;;26.21;49.62;100139.23;106395;1260;95864;-81
2023/07/12 08:31:55;;;;;;;6.50;3.30;;;;;;;26.28;48.84;100134.23;106455;1261;96853;-82
2023/07/12 08:34:41;;;;;;;3.70;2.70;;;;;;;26.33;47.77;100135.01;106270;1263;100028;-81
2023/07/12 08:37:27;;;;;;;4.70;3.10;;;;;;;26.39;47.61;100133.09;106175;1261;100326;-82
2023/07/12 08:40:14;;;;;;;5.30;3.10;;;;;;;26.45;47.78;100126.88;106397;1258;97727;-81
2023/07/12 08:43:00;;;;;;;3.90;3.20;;;;;;;26.54;47.42;100122.42;106228;1267;96591;-81
2023/07/12 08:45:52;;;;;;;3.80;3.40;;;;;;;26.61;46.59;100113.52;106424;1258;95907;-83
2023/07/12 08:48:38;;;;;;;3.50;3.20;;;;;;;26.66;46.33;100112.92;106455;1262;99993;-81
2023/07/12 08:51:28;;;;;;;4.70;3.00;;;;;;;26.70;46.33;100108.06;106537;1262;99328;-81
2023/07/12 08:54:24;;;;;;;3.10;2.80;;;;;;;26.75;45.93;100108.24;106329;1258;98988;-82
2023/07/12 08:57:12;;;;;;;5.30;2.90;;;;;;;26.84;45.80;100103.48;106060;1261;96623;-82
2023/07/12 09:00:10;;;;;;;3.40;3.10;;;;;;;26.96;45.65;100098.86;106064;1273;97043;-82
2023/07/12 09:02:56;;;;;;;4.00;3.20;;;;;;;27.14;45.43;100089.42;106137;1259;100077;-82
2023/07/12 09:05:41;;;;;;;6.00;3.10;;;;;;;27.32;45.43;100088.70;106163;1259;100072;-84
2023/07/12 09:08:33;;;;;;;9.30;2.90;;;;;;;27.49;44.85;100088.00;105947;1263;99455;-83
2023/07/12 09:11:27;;;;;;;7.80;3.00;;;;;;;27.63;44.26;100085.79;106283;1263;96737;-82
2023/07/12 09:14:18;;;;;;;4.00;2.70;;;;;;;27.76;43.20;100078.38;105823;1257;96591;-82
2023/07/12 09:17:20;;;;;;;4.80;2.80;;;;;;;27.87;42.49;100074.64;106073;1261;101078;-83
2023/07/12 09:20:25;;;;;;;3.90;2.50;;;;;;;27.99;42.59;100072.98;105995;1261;99115;-83
2023/07/12 09:23:13;;;;;;;4.50;3.10;;;;;;;28.12;42.80;100070.16;106279;1260;97957;-82
2023/07/12 09:25:58;;;;;;;5.20;2.90;;;;;;;28.25;41.97;100064.09;106332;1257;96631;-83
2023/07/12 09:28:44;;;;;;;6.00;2.90;;;;;;;28.37;41.90;100055.48;106164;1259;97125;-83
2023/07/12 09:31:30;;;;;;;5.70;2.90;;;;;;;28.48;41.69;100057.61;106254;1260;109436;-83
2023/07/12 09:34:22;;;;;;;7.00;3.00;;;;;;;28.53;41.18;100056.20;106324;1262;100406;-83
2023/07/12 09:37:22;;;;;;;3.20;2.60;;;;;;;28.59;41.18;100049.45;106155;1256;97691;-83
2023/07/12 09:40:15;;;;;;;2.50;2.30;;;;;;;28.70;40.72;100041.39;106064;1263;96695;-83
2023/07/12 09:43:04;;;;;;;4.80;3.30;;;;;;;28.84;40.91;100038.46;106120;1257;96610;-83
2023/07/12 09:46:29;;;;;;;4.70;2.90;;;;;;;29.00;40.56;100037.45;106216;1257;100897;-81
2023/07/12 09:49:19;;;;;;;4.90;2.80;;;;;;;29.13;39.73;100042.12;106212;1260;100461;-82
2023/07/12 09:52:17;;;;;;;4.50;3.20;;;;;;;29.18;39.16;100043.64;106083;1258;98036;-83
2023/07/12 09:55:12;;;;;;;4.50;2.50;;;;;;;29.24;39.61;100034.56;106306;1257;96622;-84
2023/07/12 09:58:16;;;;;;;4.50;2.70;;;;;;;29.32;39.50;100032.34;106140;1257;97928;-83
2023/07/12 10:01:14;;;;;;;5.40;3.20;;;;;;;29.37;39.11;100029.19;106126;1261;101322;-83
2023/07/12 10:04:17;;;;;;;4.60;3.00;;;;;;;29.45;38.80;100029.25;106266;1257;99264;-82
2023/07/12 10:07:37;;;;;;;3.80;3.10;;;;;;;29.51;38.24;100028.85;106197;1257;97708;-83
2023/07/12 10:10:48;;;;;;;3.10;2.60;;;;;;;29.55;38.39;100015.51;106079;1258;96887;-83
2023/07/12 10:13:41;;;;;;;3.60;2.80;;;;;;;29.64;38.29;100002.34;106220;1257;97494;-82
2023/07/12 10:16:34;;;;;;;6.00;3.00;;;;;;;29.75;38.13;99996.83;106289;1260;109213;-83
2023/07/12 10:19:37;;;;;;;3.20;2.90;;;;;;;29.76;38.03;99995.37;106150;1261;99124;-83
2023/07/12 10:22:38;;;;;;;6.00;3.30;;;;;;;29.79;37.76;99993.94;106331;1269;97760;-83
2023/07/12 10:25:29;;;;;;;3.80;3.10;;;;;;;29.84;37.57;99984.44;106384;1257;96609;-83
2023/07/12 10:28:27;;;;;;;5.20;3.20;;;;;;;29.88;37.47;99979.04;106166;1258;97377;-82
2023/07/12 10:31:36;;;;;;;7.20;3.20;;;;;;;29.93;37.70;99980.64;106301;1261;100108;-84
2023/07/12 10:34:28;;;;;;;5.60;3.20;;;;;;;29.98;36.96;99981.77;107146;1260;99802;-83
2023/07/12 10:37:38;;;;;;;4.10;3.50;;;;;;;30.03;37.38;99978.41;106287;1257;98296;-83
2023/07/12 10:40:31;;;;;;;6.30;3.30;;;;;;;30.11;37.60;99970.77;106175;1257;96691;-83
2023/07/12 10:43:28;;;;;;;4.00;3.10;;;;;;;30.22;37.88;99971.48;106119;1257;97064;-82
2023/07/12 10:46:32;;;;;;;8.20;3.20;;;;;;;30.31;37.57;99969.77;106356;1260;100041;-82
2023/07/12 10:49:41;;;;;;;5.00;3.60;;;;;;;30.35;37.39;99963.82;106466;1257;99968;-83
2023/07/12 10:52:27;;;;;;;6.40;3.60;;;;;;;30.41;37.78;99964.97;106352;1260;97844;-83
2023/07/12 10:55:41;;;;;;;4.60;3.60;;;;;;;30.49;37.56;99965.41;106224;1260;96559;-83
2023/07/12 10:58:47;;;;;;;6.70;4.40;;;;;;;30.56;37.14;99961.05;106216;1260;97259;-82
2023/07/12 11:01:50;;;;;;;7.10;4.80;;;;;;;30.58;36.96;99952.05;106148;1258;100043;-82
2023/07/12 11:04:46;;;;;;;5.60;4.10;;;;;;;30.61;36.76;99941.67;106315;1260;99982;-83
2023/07/12 11:07:36;;;;;;;4.90;4.30;;;;;;;30.63;36.59;99935.33;106422;1260;97708;-82
2023/07/12 11:10:26;;;;;;;4.90;3.80;;;;;;;30.62;36.58;99929.07;106599;1257;96609;-83
2023/07/12 11:13:13;;;;;;;5.50;4.00;;;;;;;30.59;37.00;99923.42;106627;1258;96589;-83
2023/07/12 11:16:04;;;;;;;5.20;3.90;;;;;;;30.58;36.99;99921.79;106476;1258;100042;-82
2023/07/12 11:18:54;;;;;;;5.40;3.90;;;;;;;30.53;37.43;99915.11;106387;1257;99159;-82
2023/07/12 11:21:50;;;;;;;6.90;3.70;;;;;;;30.47;37.28;99909.62;106403;1257;97752;-82
2023/07/12 11:24:39;;;;;;;7.40;4.20;;;;;;;30.40;37.35;99904.27;106577;1257;96902;-82
2023/07/12 11:27:42;;;;;;;5.90;4.70;;;;;;;30.34;37.50;99901.23;106456;1256;96514;-82
2023/07/12 11:30:31;;;;;;;5.40;4.30;;;;;;;30.31;37.50;99900.30;106573;1256;100928;-81
2023/07/12 11:33:29;;;;;;;8.00;4.40;;;;;;;30.30;37.37;99895.31;106512;1260;99115;-81
2023/07/12 11:36:22;;;;;;;6.50;4.10;;;;;;;30.26;37.47;99889.64;106500;1258;97858;-81
2023/07/12 11:39:18;;;;;;;8.60;4.10;;;;;;;30.25;37.53;99893.83;106445;1260;96859;-81
2023/07/12 11:42:08;;;;;;;7.30;4.50;;;;;;;30.24;37.28;99898.38;106488;1257;95744;-82
2023/07/12 11:45:11;;;;;;;8.80;4.60;;;;;;;30.21;37.47;99906.81;106360;1258;108346;-82
2023/07/12 11:47:57;;;;;;;7.70;4.20;;;;;;;30.20;37.82;99918.27;106473;1256;99837;-82
2023/07/12 11:50:47;;;;;;;5.60;4.40;;;;;;;30.17;37.89;99919.25;106666;1257;97821;-82
2023/07/12 11:53:32;;;;;;;5.70;4.60;;;;;;;30.13;38.37;99919.73;106649;1260;96597;-82
2023/07/12 11:56:18;;;;;;;4.60;3.80;;;;;;;30.08;38.39;99928.43;106750;1258;96612;-82
2023/07/12 11:59:04;;;;;;;5.90;3.90;;;;;;;30.05;38.64;99936.20;106641;1257;100000;-81
2023/07/12 12:01:51;;;;;;;5.10;4.50;;;;;;;30.00;38.58;99931.88;106452;1256;99081;-81
2023/07/12 12:04:38;;;;;;;8.70;4.40;;;;;;;29.98;38.95;99933.84;106386;1258;99717;-83
2023/07/12 12:07:36;;;;;;;7.80;4.90;;;;;;;29.98;38.81;99936.15;106533;1257;96501;-82
2023/07/12 12:10:25;;;;;;;5.50;4.60;;;;;;;30.04;38.91;99936.44;106476;1257;96987;-82
2023/07/12 12:13:17;;;;;;;6.90;4.50;;;;;;;30.05;39.01;99931.40;106514;1260;100127;-82
2023/07/12 12:16:18;;;;;;;5.90;4.20;;;;;;;30.05;38.99;99929.20;106465;1257;99182;-81
2023/07/12 12:19:17;;;;;;;8.20;4.80;;;;;;;30.01;38.84;99926.03;106529;1258;98962;-81
2023/07/12 12:22:11;;;;;;;7.30;5.50;;;;;;;29.97;39.10;99924.48;106310;1260;97745;-81
2023/07/12 12:25:00;;;;;;;5.20;4.70;;;;;;;29.90;38.94;99930.02;106721;1256;96034;-82
2023/07/12 12:27:46;;;;;;;7.70;4.70;;;;;;;29.84;39.27;99936.81;106609;1256;100059;-82
2023/07/12 12:30:33;;;;;;;6.10;4.40;;;;;;;29.81;39.43;99942.90;106646;1260;99214;-81
2023/07/12 12:33:23;;;;;;;5.60;4.50;;;;;;;29.73;39.19;99944.76;106533;1257;97783;-82
2023/07/12 12:36:21;;;;;;;8.20;4.70;;;;;;;29.65;39.41;99944.09;106470;1263;96615;-81
2023/07/12 12:39:09;;;;;;;4.80;4.40;;;;;;;29.57;39.32;99938.16;106613;1257;96952;-81
2023/07/12 12:42:00;;;;;;;10.60;4.50;;;;;;;29.50;39.45;99935.54;106670;1257;100993;-82
2023/07/12 12:44:46;;;;;;;8.70;4.60;;;;;;;29.42;39.81;99934.26;106578;1257;99141;-81
2023/07/12 12:47:33;;;;;;;6.50;4.50;;;;;;;29.32;39.83;99932.15;106534;1260;97913;-81
2023/07/12 12:50:20;;;;;;;8.70;4.40;;;;;;;29.22;39.86;99929.73;106843;1256;96603;-80
2023/07/12 12:53:12;;;;;;;5.40;4.70;;;;;;;29.14;40.07;99929.83;106613;1256;96429;-80